sensor_id;sensor_type;location;lat;lon;timestamp;temperature;humidity
69626;DHT22;56847;51.984;5.088;2022-08-21T04:02:33;17.90;68.60
69626;DHT22;56847;51.984;5.088;2022-08-21T04:05:00;17.90;68.60
69626;DHT22;56847;51.984;5.088;2022-08-21T04:07:27;17.90;68.70
69626;DHT22;56847;51.984;5.088;2022-08-21T04:09:53;18.00;68.70
69626;DHT22;56847;51.984;5.088;2022-08-21T04:12:21;18.00;68.80
69626;DHT22;56847;51.984;5.088;2022-08-21T04:14:47;17.90;68.90
69626;DHT22;56847;51.984;5.088;2022-08-21T04:17:14;17.90;68.90
69626;DHT22;56847;51.984;5.088;2022-08-21T04:19:41;18.00;69.00
69626;DHT22;56847;51.984;5.088;2022-08-21T04:22:08;18.00;69.00
69626;DHT22;56847;51.984;5.088;2022-08-21T04:24:35;18.00;69.00
69626;DHT22;56847;51.984;5.088;2022-08-21T04:27:02;18.00;69.10
69626;DHT22;56847;51.984;5.088;2022-08-21T04:29:29;18.00;69.10
69626;DHT22;56847;51.984;5.088;2022-08-21T04:31:56;18.00;69.10
69626;DHT22;56847;51.984;5.088;2022-08-21T04:34:23;18.00;69.10
69626;DHT22;56847;51.984;5.088;2022-08-21T04:36:50;17.90;69.10
69626;DHT22;56847;51.984;5.088;2022-08-21T04:39:17;17.90;69.10
69626;DHT22;56847;51.984;5.088;2022-08-21T04:41:43;17.90;69.20
69626;DHT22;56847;51.984;5.088;2022-08-21T04:44:10;17.80;69.30
69626;DHT22;56847;51.984;5.088;2022-08-21T04:46:37;17.80;69.50
69626;DHT22;56847;51.984;5.088;2022-08-21T04:49:04;17.80;69.60
69626;DHT22;56847;51.984;5.088;2022-08-21T04:51:34;17.70;69.80
69626;DHT22;56847;51.984;5.088;2022-08-21T04:54:13;17.70;69.80
69626;DHT22;56847;51.984;5.088;2022-08-21T04:56:51;17.70;69.90
69626;DHT22;56847;51.984;5.088;2022-08-21T04:59:30;17.70;70.10
69626;DHT22;56847;51.984;5.088;2022-08-21T05:02:00;17.70;70.10
69626;DHT22;56847;51.984;5.088;2022-08-21T05:04:30;17.70;70.10
69626;DHT22;56847;51.984;5.088;2022-08-21T05:07:04;17.70;70.20
69626;DHT22;56847;51.984;5.088;2022-08-21T05:09:33;17.70;70.20
69626;DHT22;56847;51.984;5.088;2022-08-21T05:12:02;17.80;70.20
69626;DHT22;56847;51.984;5.088;2022-08-21T05:14:33;17.80;70.20
69626;DHT22;56847;51.984;5.088;2022-08-21T05:17:00;17.80;70.10
69626;DHT22;56847;51.984;5.088;2022-08-21T05:19:27;17.80;70.10
69626;DHT22;56847;51.984;5.088;2022-08-21T05:21:54;17.90;70.20
69626;DHT22;56847;51.984;5.088;2022-08-21T05:24:21;17.80;70.10
69626;DHT22;56847;51.984;5.088;2022-08-21T05:26:48;17.90;70.10
69626;DHT22;56847;51.984;5.088;2022-08-21T05:29:16;17.90;70.20
69626;DHT22;56847;51.984;5.088;2022-08-21T05:31:45;17.90;70.30
69626;DHT22;56847;51.984;5.088;2022-08-21T05:34:23;17.90;70.40
69626;DHT22;56847;51.984;5.088;2022-08-21T05:36:50;18.00;70.50
69626;DHT22;56847;51.984;5.088;2022-08-21T05:39:17;18.00;70.50
69626;DHT22;56847;51.984;5.088;2022-08-21T05:41:44;18.10;70.50
69626;DHT22;56847;51.984;5.088;2022-08-21T05:44:11;18.10;70.40
69626;DHT22;56847;51.984;5.088;2022-08-21T05:46:38;18.10;70.50
69626;DHT22;56847;51.984;5.088;2022-08-21T05:49:05;18.20;70.50
69626;DHT22;56847;51.984;5.088;2022-08-21T05:51:32;18.20;70.40
69626;DHT22;56847;51.984;5.088;2022-08-21T05:53:59;18.30;70.40
69626;DHT22;56847;51.984;5.088;2022-08-21T05:56:26;18.20;70.60
69626;DHT22;56847;51.984;5.088;2022-08-21T05:58:54;18.30;70.60
69626;DHT22;56847;51.984;5.088;2022-08-21T06:01:22;18.30;70.70
69626;DHT22;56847;51.984;5.088;2022-08-21T06:03:49;18.30;70.90
69626;DHT22;56847;51.984;5.088;2022-08-21T06:06:17;18.30;71.00
69626;DHT22;56847;51.984;5.088;2022-08-21T06:08:44;18.40;71.30
69626;DHT22;56847;51.984;5.088;2022-08-21T06:11:11;18.40;71.40
69626;DHT22;56847;51.984;5.088;2022-08-21T06:13:38;18.50;71.50
69626;DHT22;56847;51.984;5.088;2022-08-21T06:16:11;18.70;71.50
69626;DHT22;56847;51.984;5.088;2022-08-21T06:18:43;18.80;71.30
69626;DHT22;56847;51.984;5.088;2022-08-21T06:21:11;18.90;71.10
69626;DHT22;56847;51.984;5.088;2022-08-21T06:23:41;19.00;71.20
69626;DHT22;56847;51.984;5.088;2022-08-21T06:26:11;19.10;71.10
69626;DHT22;56847;51.984;5.088;2022-08-21T06:28:38;19.20;71.10
69626;DHT22;56847;51.984;5.088;2022-08-21T06:31:18;19.40;70.90
69626;DHT22;56847;51.984;5.088;2022-08-21T06:33:46;19.50;70.60
69626;DHT22;56847;51.984;5.088;2022-08-21T06:36:14;19.60;70.50
69626;DHT22;56847;51.984;5.088;2022-08-21T06:38:41;19.70;70.40
69626;DHT22;56847;51.984;5.088;2022-08-21T06:41:18;19.80;70.20
69626;DHT22;56847;51.984;5.088;2022-08-21T06:43:53;19.80;70.20
69626;DHT22;56847;51.984;5.088;2022-08-21T06:46:20;20.00;70.30
69626;DHT22;56847;51.984;5.088;2022-08-21T06:48:47;20.10;70.00
69626;DHT22;56847;51.984;5.088;2022-08-21T06:51:14;20.20;69.80
69626;DHT22;56847;51.984;5.088;2022-08-21T06:53:41;20.30;69.80
69626;DHT22;56847;51.984;5.088;2022-08-21T06:56:08;20.40;69.70
69626;DHT22;56847;51.984;5.088;2022-08-21T06:58:35;20.50;69.60
69626;DHT22;56847;51.984;5.088;2022-08-21T07:01:03;20.60;69.60
69626;DHT22;56847;51.984;5.088;2022-08-21T07:03:33;20.80;69.40
69626;DHT22;56847;51.984;5.088;2022-08-21T07:06:01;20.90;68.90
69626;DHT22;56847;51.984;5.088;2022-08-21T07:08:29;21.00;68.90
69626;DHT22;56847;51.984;5.088;2022-08-21T07:10:58;21.10;68.70
69626;DHT22;56847;51.984;5.088;2022-08-21T07:13:26;21.20;68.60
69626;DHT22;56847;51.984;5.088;2022-08-21T07:15:53;21.40;68.50
69626;DHT22;56847;51.984;5.088;2022-08-21T07:18:20;21.50;68.30
69626;DHT22;56847;51.984;5.088;2022-08-21T07:20:48;21.70;68.10
69626;DHT22;56847;51.984;5.088;2022-08-21T07:23:23;21.80;67.70
69626;DHT22;56847;51.984;5.088;2022-08-21T07:25:51;21.90;67.20
69626;DHT22;56847;51.984;5.088;2022-08-21T07:28:18;21.90;66.90
69626;DHT22;56847;51.984;5.088;2022-08-21T07:30:45;21.90;66.70
69626;DHT22;56847;51.984;5.088;2022-08-21T07:33:12;21.90;67.00
69626;DHT22;56847;51.984;5.088;2022-08-21T07:35:39;22.00;66.80
69626;DHT22;56847;51.984;5.088;2022-08-21T07:38:06;22.10;66.90
69626;DHT22;56847;51.984;5.088;2022-08-21T07:40:33;22.20;66.50
69626;DHT22;56847;51.984;5.088;2022-08-21T07:43:00;22.30;66.10
69626;DHT22;56847;51.984;5.088;2022-08-21T07:45:27;22.30;66.10
69626;DHT22;56847;51.984;5.088;2022-08-21T07:47:54;22.40;66.10
69626;DHT22;56847;51.984;5.088;2022-08-21T07:50:24;22.50;66.00
69626;DHT22;56847;51.984;5.088;2022-08-21T07:52:51;22.60;65.70
69626;DHT22;56847;51.984;5.088;2022-08-21T07:55:19;22.60;65.50
69626;DHT22;56847;51.984;5.088;2022-08-21T07:57:47;22.70;65.50
69626;DHT22;56847;51.984;5.088;2022-08-21T08:00:21;22.80;65.00
69626;DHT22;56847;51.984;5.088;2022-08-21T08:02:50;22.80;65.00
69626;DHT22;56847;51.984;5.088;2022-08-21T08:05:21;22.80;65.30
69626;DHT22;56847;51.984;5.088;2022-08-21T08:07:48;22.90;65.00
69626;DHT22;56847;51.984;5.088;2022-08-21T08:10:15;22.90;64.70
69626;DHT22;56847;51.984;5.088;2022-08-21T08:12:43;22.90;65.00
69626;DHT22;56847;51.984;5.088;2022-08-21T08:15:19;23.00;65.20
69626;DHT22;56847;51.984;5.088;2022-08-21T08:17:46;23.20;65.00
69626;DHT22;56847;51.984;5.088;2022-08-21T08:20:16;23.40;64.30
69626;DHT22;56847;51.984;5.088;2022-08-21T08:22:45;23.40;64.10
69626;DHT22;56847;51.984;5.088;2022-08-21T08:25:18;23.50;64.00
69626;DHT22;56847;51.984;5.088;2022-08-21T08:27:45;23.50;63.90
69626;DHT22;56847;51.984;5.088;2022-08-21T08:30:17;23.60;63.80
69626;DHT22;56847;51.984;5.088;2022-08-21T08:32:46;23.70;63.80
69626;DHT22;56847;51.984;5.088;2022-08-21T08:35:14;23.90;64.00
69626;DHT22;56847;51.984;5.088;2022-08-21T08:37:41;24.00;63.60
69626;DHT22;56847;51.984;5.088;2022-08-21T08:40:22;24.20;62.80
69626;DHT22;56847;51.984;5.088;2022-08-21T08:42:51;24.20;62.30
69626;DHT22;56847;51.984;5.088;2022-08-21T08:45:20;24.20;62.10
69626;DHT22;56847;51.984;5.088;2022-08-21T08:48:01;24.30;62.30
69626;DHT22;56847;51.984;5.088;2022-08-21T08:51:09;24.50;61.70
69626;DHT22;56847;51.984;5.088;2022-08-21T08:54:04;24.40;61.10
69626;DHT22;56847;51.984;5.088;2022-08-21T08:56:35;24.20;61.30
69626;DHT22;56847;51.984;5.088;2022-08-21T08:59:18;24.30;61.80
69626;DHT22;56847;51.984;5.088;2022-08-21T09:01:46;24.50;61.80
69626;DHT22;56847;51.984;5.088;2022-08-21T09:04:20;24.80;61.60
69626;DHT22;56847;51.984;5.088;2022-08-21T09:09:31;25.30;61.10
69626;DHT22;56847;51.984;5.088;2022-08-21T09:15:03;25.90;59.40
69626;DHT22;56847;51.984;5.088;2022-08-21T09:17:59;26.10;58.80
69626;DHT22;56847;51.984;5.088;2022-08-21T09:20:58;26.00;57.90
69626;DHT22;56847;51.984;5.088;2022-08-21T09:23:46;25.80;57.70
69626;DHT22;56847;51.984;5.088;2022-08-21T09:26:20;25.70;57.80
69626;DHT22;56847;51.984;5.088;2022-08-21T09:28:57;25.70;58.40
69626;DHT22;56847;51.984;5.088;2022-08-21T09:31:33;25.90;57.90
69626;DHT22;56847;51.984;5.088;2022-08-21T09:34:06;26.10;57.00
69626;DHT22;56847;51.984;5.088;2022-08-21T09:36:40;26.20;57.20
69626;DHT22;56847;51.984;5.088;2022-08-21T09:39:09;26.40;57.30
69626;DHT22;56847;51.984;5.088;2022-08-21T09:41:37;26.70;56.40
69626;DHT22;56847;51.984;5.088;2022-08-21T09:44:06;26.90;55.60
69626;DHT22;56847;51.984;5.088;2022-08-21T09:46:34;26.90;54.90
69626;DHT22;56847;51.984;5.088;2022-08-21T09:49:04;26.80;53.80
69626;DHT22;56847;51.984;5.088;2022-08-21T09:51:36;26.60;54.50
69626;DHT22;56847;51.984;5.088;2022-08-21T09:56:36;26.30;54.10
69626;DHT22;56847;51.984;5.088;2022-08-21T09:59:33;26.00;54.10
69626;DHT22;56847;51.984;5.088;2022-08-21T10:02:26;25.80;54.70
69626;DHT22;56847;51.984;5.088;2022-08-21T10:04:59;25.80;54.50
69626;DHT22;56847;51.984;5.088;2022-08-21T10:07:29;25.90;54.20
69626;DHT22;56847;51.984;5.088;2022-08-21T10:10:04;26.10;53.70
69626;DHT22;56847;51.984;5.088;2022-08-21T10:12:39;26.10;53.70
69626;DHT22;56847;51.984;5.088;2022-08-21T10:15:23;26.20;53.80
69626;DHT22;56847;51.984;5.088;2022-08-21T10:23:41;27.20;52.30
69626;DHT22;56847;51.984;5.088;2022-08-21T10:26:32;27.40;51.20
69626;DHT22;56847;51.984;5.088;2022-08-21T10:29:06;27.50;51.10
69626;DHT22;56847;51.984;5.088;2022-08-21T10:40:02;27.60;49.30
69626;DHT22;56847;51.984;5.088;2022-08-21T10:48:35;27.40;49.80
69626;DHT22;56847;51.984;5.088;2022-08-21T10:51:23;27.50;50.10
69626;DHT22;56847;51.984;5.088;2022-08-21T10:56:28;27.80;49.10
69626;DHT22;56847;51.984;5.088;2022-08-21T11:01:44;28.10;48.40
69626;DHT22;56847;51.984;5.088;2022-08-21T11:06:47;28.50;47.50
69626;DHT22;56847;51.984;5.088;2022-08-21T11:09:19;28.50;47.90
69626;DHT22;56847;51.984;5.088;2022-08-21T11:12:05;28.50;47.30
69626;DHT22;56847;51.984;5.088;2022-08-21T11:14:44;28.50;46.80
69626;DHT22;56847;51.984;5.088;2022-08-21T11:17:19;28.50;46.10
69626;DHT22;56847;51.984;5.088;2022-08-21T11:20:15;28.40;45.70
69626;DHT22;56847;51.984;5.088;2022-08-21T11:22:54;28.30;46.40
69626;DHT22;56847;51.984;5.088;2022-08-21T11:25:38;28.30;45.50
69626;DHT22;56847;51.984;5.088;2022-08-21T11:28:17;28.10;44.80
69626;DHT22;56847;51.984;5.088;2022-08-21T11:33:59;27.60;45.70
69626;DHT22;56847;51.984;5.088;2022-08-21T11:45:48;28.00;46.10
69626;DHT22;56847;51.984;5.088;2022-08-21T11:48:41;28.00;46.20
69626;DHT22;56847;51.984;5.088;2022-08-21T11:51:15;28.00;46.60
69626;DHT22;56847;51.984;5.088;2022-08-21T11:57:02;28.20;45.20
69626;DHT22;56847;51.984;5.088;2022-08-21T11:59:39;28.20;44.40
69626;DHT22;56847;51.984;5.088;2022-08-21T12:02:13;28.30;44.50
69626;DHT22;56847;51.984;5.088;2022-08-21T12:04:59;28.60;44.40
69626;DHT22;56847;51.984;5.088;2022-08-21T12:07:41;28.80;43.40
69626;DHT22;56847;51.984;5.088;2022-08-21T12:10:17;29.00;43.40
69626;DHT22;56847;51.984;5.088;2022-08-21T12:12:47;29.10;43.50
69626;DHT22;56847;51.984;5.088;2022-08-21T12:15:16;29.30;43.30
69626;DHT22;56847;51.984;5.088;2022-08-21T12:17:56;29.50;42.80
69626;DHT22;56847;51.984;5.088;2022-08-21T12:23:24;29.90;41.90
69626;DHT22;56847;51.984;5.088;2022-08-21T12:26:03;30.00;41.10
69626;DHT22;56847;51.984;5.088;2022-08-21T12:28:31;30.10;40.80
69626;DHT22;56847;51.984;5.088;2022-08-21T12:30:58;30.20;40.90
69626;DHT22;56847;51.984;5.088;2022-08-21T12:33:39;30.20;40.60
69626;DHT22;56847;51.984;5.088;2022-08-21T12:36:13;29.90;41.10
69626;DHT22;56847;51.984;5.088;2022-08-21T12:38:52;29.50;41.50
69626;DHT22;56847;51.984;5.088;2022-08-21T12:41:41;29.20;42.10
69626;DHT22;56847;51.984;5.088;2022-08-21T12:44:14;29.20;42.40
69626;DHT22;56847;51.984;5.088;2022-08-21T12:49:56;29.30;41.40
69626;DHT22;56847;51.984;5.088;2022-08-21T12:52:59;29.40;42.10
69626;DHT22;56847;51.984;5.088;2022-08-21T12:55:32;29.60;41.10
69626;DHT22;56847;51.984;5.088;2022-08-21T12:58:00;29.70;40.90
69626;DHT22;56847;51.984;5.088;2022-08-21T13:00:29;29.70;40.50
69626;DHT22;56847;51.984;5.088;2022-08-21T13:02:56;29.60;41.20
69626;DHT22;56847;51.984;5.088;2022-08-21T13:05:35;29.60;41.20
69626;DHT22;56847;51.984;5.088;2022-08-21T13:08:07;29.80;41.30
69626;DHT22;56847;51.984;5.088;2022-08-21T13:10:36;29.90;40.90
69626;DHT22;56847;51.984;5.088;2022-08-21T13:13:06;30.00;40.60
69626;DHT22;56847;51.984;5.088;2022-08-21T13:15:40;30.10;40.00
69626;DHT22;56847;51.984;5.088;2022-08-21T13:18:22;30.10;39.70
69626;DHT22;56847;51.984;5.088;2022-08-21T13:20:50;30.10;39.40
69626;DHT22;56847;51.984;5.088;2022-08-21T13:23:26;30.10;39.50
69626;DHT22;56847;51.984;5.088;2022-08-21T13:25:54;30.20;39.70
69626;DHT22;56847;51.984;5.088;2022-08-21T13:28:22;30.30;39.60
69626;DHT22;56847;51.984;5.088;2022-08-21T13:30:54;30.50;39.70
69626;DHT22;56847;51.984;5.088;2022-08-21T13:33:24;30.60;39.20
69626;DHT22;56847;51.984;5.088;2022-08-21T13:36:13;30.60;38.80
69626;DHT22;56847;51.984;5.088;2022-08-21T13:38:42;30.50;39.30
69626;DHT22;56847;51.984;5.088;2022-08-21T13:41:32;30.50;38.60
69626;DHT22;56847;51.984;5.088;2022-08-21T13:44:21;30.50;38.20
69626;DHT22;56847;51.984;5.088;2022-08-21T13:46:49;30.30;38.90
69626;DHT22;56847;51.984;5.088;2022-08-21T13:49:20;30.30;39.30
69626;DHT22;56847;51.984;5.088;2022-08-21T13:51:48;30.30;38.70
69626;DHT22;56847;51.984;5.088;2022-08-21T13:54:34;30.20;38.70
69626;DHT22;56847;51.984;5.088;2022-08-21T13:57:01;30.20;39.10
69626;DHT22;56847;51.984;5.088;2022-08-21T13:59:34;30.10;38.90
69626;DHT22;56847;51.984;5.088;2022-08-21T14:02:18;30.10;38.90
69626;DHT22;56847;51.984;5.088;2022-08-21T14:04:59;29.90;38.90
69626;DHT22;56847;51.984;5.088;2022-08-21T14:07:31;29.70;39.30
69626;DHT22;56847;51.984;5.088;2022-08-21T14:10:12;29.50;39.70
69626;DHT22;56847;51.984;5.088;2022-08-21T14:12:55;29.60;39.60
69626;DHT22;56847;51.984;5.088;2022-08-21T14:15:26;29.60;39.20
69626;DHT22;56847;51.984;5.088;2022-08-21T14:18:08;29.60;39.20
69626;DHT22;56847;51.984;5.088;2022-08-21T14:20:36;29.60;38.80
69626;DHT22;56847;51.984;5.088;2022-08-21T14:23:03;29.50;39.40
69626;DHT22;56847;51.984;5.088;2022-08-21T14:25:39;29.30;40.00
69626;DHT22;56847;51.984;5.088;2022-08-21T14:28:26;29.20;40.40
69626;DHT22;56847;51.984;5.088;2022-08-21T14:31:18;29.10;40.50
69626;DHT22;56847;51.984;5.088;2022-08-21T14:33:45;28.90;40.70
69626;DHT22;56847;51.984;5.088;2022-08-21T14:36:12;28.70;41.20
69626;DHT22;56847;51.984;5.088;2022-08-21T14:38:40;28.60;41.60
69626;DHT22;56847;51.984;5.088;2022-08-21T14:41:16;28.60;41.80
69626;DHT22;56847;51.984;5.088;2022-08-21T14:43:45;28.60;42.10
69626;DHT22;56847;51.984;5.088;2022-08-21T14:46:18;28.50;42.00
69626;DHT22;56847;51.984;5.088;2022-08-21T14:48:46;28.50;42.00
69626;DHT22;56847;51.984;5.088;2022-08-21T14:51:13;28.40;41.90
69626;DHT22;56847;51.984;5.088;2022-08-21T14:53:41;28.20;42.10
69626;DHT22;56847;51.984;5.088;2022-08-21T14:56:08;28.20;42.40
69626;DHT22;56847;51.984;5.088;2022-08-21T14:58:37;28.20;42.20
69626;DHT22;56847;51.984;5.088;2022-08-21T15:01:06;28.10;42.60
69626;DHT22;56847;51.984;5.088;2022-08-21T15:03:34;28.00;42.70
69626;DHT22;56847;51.984;5.088;2022-08-21T15:06:02;27.80;42.90
69626;DHT22;56847;51.984;5.088;2022-08-21T15:08:29;27.60;43.10
69626;DHT22;56847;51.984;5.088;2022-08-21T15:10:57;27.40;43.60
69626;DHT22;56847;51.984;5.088;2022-08-21T15:13:38;27.20;44.20
69626;DHT22;56847;51.984;5.088;2022-08-21T15:16:05;27.20;44.30
69626;DHT22;56847;51.984;5.088;2022-08-21T15:18:34;27.20;44.40
69626;DHT22;56847;51.984;5.088;2022-08-21T15:21:01;27.20;44.40
69626;DHT22;56847;51.984;5.088;2022-08-21T15:23:28;27.30;44.30
69626;DHT22;56847;51.984;5.088;2022-08-21T15:25:55;27.40;43.80
69626;DHT22;56847;51.984;5.088;2022-08-21T15:28:25;27.40;43.70
69626;DHT22;56847;51.984;5.088;2022-08-21T15:30:59;27.40;43.50
69626;DHT22;56847;51.984;5.088;2022-08-21T15:33:27;27.40;43.30
69626;DHT22;56847;51.984;5.088;2022-08-21T15:35:57;27.50;43.60
69626;DHT22;56847;51.984;5.088;2022-08-21T15:38:25;27.80;43.30
69626;DHT22;56847;51.984;5.088;2022-08-21T15:40:52;28.00;42.60
69626;DHT22;56847;51.984;5.088;2022-08-21T15:43:30;28.20;42.10
69626;DHT22;56847;51.984;5.088;2022-08-21T15:45:59;28.40;41.20
69626;DHT22;56847;51.984;5.088;2022-08-21T15:48:27;28.50;41.00
69626;DHT22;56847;51.984;5.088;2022-08-21T15:50:54;28.60;40.90
69626;DHT22;56847;51.984;5.088;2022-08-21T15:53:21;28.60;40.80
69626;DHT22;56847;51.984;5.088;2022-08-21T15:55:48;28.50;40.80
69626;DHT22;56847;51.984;5.088;2022-08-21T15:58:16;28.50;41.30
69626;DHT22;56847;51.984;5.088;2022-08-21T16:00:44;28.50;41.40
69626;DHT22;56847;51.984;5.088;2022-08-21T16:03:15;28.50;41.40
69626;DHT22;56847;51.984;5.088;2022-08-21T16:05:46;28.50;41.50
69626;DHT22;56847;51.984;5.088;2022-08-21T16:08:15;28.50;41.60
69626;DHT22;56847;51.984;5.088;2022-08-21T16:10:42;28.50;41.60
69626;DHT22;56847;51.984;5.088;2022-08-21T16:13:27;28.40;41.40
69626;DHT22;56847;51.984;5.088;2022-08-21T16:15:55;28.40;41.70
69626;DHT22;56847;51.984;5.088;2022-08-21T16:18:22;28.40;41.60
69626;DHT22;56847;51.984;5.088;2022-08-21T16:20:50;28.40;41.50
69626;DHT22;56847;51.984;5.088;2022-08-21T16:23:17;28.40;41.10
69626;DHT22;56847;51.984;5.088;2022-08-21T16:25:44;28.50;40.80
69626;DHT22;56847;51.984;5.088;2022-08-21T16:28:17;28.60;40.70
69626;DHT22;56847;51.984;5.088;2022-08-21T16:30:47;28.70;40.40
69626;DHT22;56847;51.984;5.088;2022-08-21T16:33:26;28.60;40.40
69626;DHT22;56847;51.984;5.088;2022-08-21T16:35:54;28.50;40.50
69626;DHT22;56847;51.984;5.088;2022-08-21T16:38:21;28.40;40.60
69626;DHT22;56847;51.984;5.088;2022-08-21T16:40:48;28.40;40.30
69626;DHT22;56847;51.984;5.088;2022-08-21T16:43:15;28.20;40.50
69626;DHT22;56847;51.984;5.088;2022-08-21T16:45:42;28.10;41.00
69626;DHT22;56847;51.984;5.088;2022-08-21T16:48:09;27.90;41.40
69626;DHT22;56847;51.984;5.088;2022-08-21T16:50:37;27.80;41.90
69626;DHT22;56847;51.984;5.088;2022-08-21T16:53:05;27.70;42.50
69626;DHT22;56847;51.984;5.088;2022-08-21T16:55:36;27.50;43.10
69626;DHT22;56847;51.984;5.088;2022-08-21T16:58:08;27.40;43.70
69626;DHT22;56847;51.984;5.088;2022-08-21T17:00:36;27.20;44.30
69626;DHT22;56847;51.984;5.088;2022-08-21T17:03:03;27.00;44.80
69626;DHT22;56847;51.984;5.088;2022-08-21T17:05:30;26.90;45.10
69626;DHT22;56847;51.984;5.088;2022-08-21T17:07:57;26.80;45.40
69626;DHT22;56847;51.984;5.088;2022-08-21T17:10:24;26.60;45.80
69626;DHT22;56847;51.984;5.088;2022-08-21T17:12:57;26.40;46.20
69626;DHT22;56847;51.984;5.088;2022-08-21T17:15:34;26.30;46.60
69626;DHT22;56847;51.984;5.088;2022-08-21T17:18:04;26.10;47.00
69626;DHT22;56847;51.984;5.088;2022-08-21T17:20:33;26.00;47.50
69626;DHT22;56847;51.984;5.088;2022-08-21T17:23:03;25.90;47.90
69626;DHT22;56847;51.984;5.088;2022-08-21T17:25:31;25.80;48.30
69626;DHT22;56847;51.984;5.088;2022-08-21T17:27:58;25.70;48.70
69626;DHT22;56847;51.984;5.088;2022-08-21T17:30:25;25.70;49.00
69626;DHT22;56847;51.984;5.088;2022-08-21T17:32:54;25.60;49.10
69626;DHT22;56847;51.984;5.088;2022-08-21T17:35:23;25.50;49.10
69626;DHT22;56847;51.984;5.088;2022-08-21T17:37:50;25.50;49.20
69626;DHT22;56847;51.984;5.088;2022-08-21T17:40:19;25.40;49.40
69626;DHT22;56847;51.984;5.088;2022-08-21T17:42:47;25.40;49.40
69626;DHT22;56847;51.984;5.088;2022-08-21T17:45:17;25.40;49.50
69626;DHT22;56847;51.984;5.088;2022-08-21T17:47:45;25.40;49.60
69626;DHT22;56847;51.984;5.088;2022-08-21T17:50:14;25.40;49.60
69626;DHT22;56847;51.984;5.088;2022-08-21T17:52:48;25.40;49.50
69626;DHT22;56847;51.984;5.088;2022-08-21T17:55:16;25.30;49.60
69626;DHT22;56847;51.984;5.088;2022-08-21T17:57:44;25.30;49.60
69626;DHT22;56847;51.984;5.088;2022-08-21T18:00:13;25.30;49.70
69626;DHT22;56847;51.984;5.088;2022-08-21T18:02:42;25.30;49.80
69626;DHT22;56847;51.984;5.088;2022-08-21T18:05:11;25.20;49.90
69626;DHT22;56847;51.984;5.088;2022-08-21T18:07:40;25.20;50.30
69626;DHT22;56847;51.984;5.088;2022-08-21T18:10:10;25.20;50.40
69626;DHT22;56847;51.984;5.088;2022-08-21T18:12:43;25.20;50.60
69626;DHT22;56847;51.984;5.088;2022-08-21T18:15:16;25.30;50.60
69626;DHT22;56847;51.984;5.088;2022-08-21T18:17:46;25.20;50.70
69626;DHT22;56847;51.984;5.088;2022-08-21T18:20:17;25.20;50.90
69626;DHT22;56847;51.984;5.088;2022-08-21T18:22:45;25.20;51.10
69626;DHT22;56847;51.984;5.088;2022-08-21T18:25:12;25.10;51.30
69626;DHT22;56847;51.984;5.088;2022-08-21T18:27:40;25.00;51.60
69626;DHT22;56847;51.984;5.088;2022-08-21T18:30:18;24.90;51.90
69626;DHT22;56847;51.984;5.088;2022-08-21T18:32:46;24.80;52.10
69626;DHT22;56847;51.984;5.088;2022-08-21T18:35:15;24.70;52.30
69626;DHT22;56847;51.984;5.088;2022-08-21T18:37:42;24.70;52.50
69626;DHT22;56847;51.984;5.088;2022-08-21T18:40:09;24.70;52.70
69626;DHT22;56847;51.984;5.088;2022-08-21T18:42:43;24.70;52.80
69626;DHT22;56847;51.984;5.088;2022-08-21T18:45:25;24.70;52.90
69626;DHT22;56847;51.984;5.088;2022-08-21T18:47:54;24.60;53.00
69626;DHT22;56847;51.984;5.088;2022-08-21T18:50:25;24.60;53.20
69626;DHT22;56847;51.984;5.088;2022-08-21T18:52:52;24.50;53.30
69626;DHT22;56847;51.984;5.088;2022-08-21T18:55:21;24.40;53.40
69626;DHT22;56847;51.984;5.088;2022-08-21T18:57:54;24.40;53.50
69626;DHT22;56847;51.984;5.088;2022-08-21T19:00:29;24.30;53.70
69626;DHT22;56847;51.984;5.088;2022-08-21T19:02:59;24.20;54.00
69626;DHT22;56847;51.984;5.088;2022-08-21T19:05:26;24.10;54.20
69626;DHT22;56847;51.984;5.088;2022-08-21T19:07:54;24.10;54.40
69626;DHT22;56847;51.984;5.088;2022-08-21T19:10:22;24.10;54.50
69626;DHT22;56847;51.984;5.088;2022-08-21T19:12:57;24.10;54.50
69626;DHT22;56847;51.984;5.088;2022-08-21T19:15:28;24.10;54.40
69626;DHT22;56847;51.984;5.088;2022-08-21T19:17:56;24.10;54.50
69626;DHT22;56847;51.984;5.088;2022-08-21T19:20:30;24.10;54.50
69626;DHT22;56847;51.984;5.088;2022-08-21T19:23:02;24.10;54.70
69626;DHT22;56847;51.984;5.088;2022-08-21T19:25:53;24.10;54.70
69626;DHT22;56847;51.984;5.088;2022-08-21T19:28:31;24.20;54.70
69626;DHT22;56847;51.984;5.088;2022-08-21T19:31:12;24.20;54.70
69626;DHT22;56847;51.984;5.088;2022-08-21T19:34:18;24.10;54.90
69626;DHT22;56847;51.984;5.088;2022-08-21T19:36:46;24.20;55.00
69626;DHT22;56847;51.984;5.088;2022-08-21T19:39:14;24.10;54.90
69626;DHT22;56847;51.984;5.088;2022-08-21T19:41:46;24.10;54.90
69626;DHT22;56847;51.984;5.088;2022-08-21T19:44:22;24.10;55.00
69626;DHT22;56847;51.984;5.088;2022-08-21T19:46:52;24.20;54.90
69626;DHT22;56847;51.984;5.088;2022-08-21T19:49:31;24.20;54.90
69626;DHT22;56847;51.984;5.088;2022-08-21T19:52:00;24.20;55.00
69626;DHT22;56847;51.984;5.088;2022-08-21T19:54:38;24.20;55.00
69626;DHT22;56847;51.984;5.088;2022-08-21T19:57:09;24.20;54.80
69626;DHT22;56847;51.984;5.088;2022-08-21T19:59:39;24.20;54.80
69626;DHT22;56847;51.984;5.088;2022-08-21T20:02:10;24.20;54.70
69626;DHT22;56847;51.984;5.088;2022-08-21T20:04:38;24.10;54.80
69626;DHT22;56847;51.984;5.088;2022-08-21T20:07:20;24.10;54.90
69626;DHT22;56847;51.984;5.088;2022-08-21T20:09:53;24.00;55.20
69626;DHT22;56847;51.984;5.088;2022-08-21T20:12:43;24.00;55.50
69626;DHT22;56847;51.984;5.088;2022-08-21T20:15:11;24.00;55.60
69626;DHT22;56847;51.984;5.088;2022-08-21T20:17:49;24.00;55.80
69626;DHT22;56847;51.984;5.088;2022-08-21T20:20:18;23.90;56.00
69626;DHT22;56847;51.984;5.088;2022-08-21T20:22:48;24.00;55.90
69626;DHT22;56847;51.984;5.088;2022-08-21T20:25:15;23.90;55.90
69626;DHT22;56847;51.984;5.088;2022-08-21T20:27:47;23.90;55.80
69626;DHT22;56847;51.984;5.088;2022-08-21T20:30:14;23.90;55.90
69626;DHT22;56847;51.984;5.088;2022-08-21T20:32:48;23.90;56.10
69626;DHT22;56847;51.984;5.088;2022-08-21T20:35:19;23.90;56.20
69626;DHT22;56847;51.984;5.088;2022-08-21T20:37:48;23.80;56.40
69626;DHT22;56847;51.984;5.088;2022-08-21T20:40:24;23.80;56.40
69626;DHT22;56847;51.984;5.088;2022-08-21T20:42:58;23.80;56.60
69626;DHT22;56847;51.984;5.088;2022-08-21T20:45:30;23.80;56.80
69626;DHT22;56847;51.984;5.088;2022-08-21T20:48:32;23.80;57.00
69626;DHT22;56847;51.984;5.088;2022-08-21T20:51:29;23.80;57.00
69626;DHT22;56847;51.984;5.088;2022-08-21T21:01:49;23.80;56.90
69626;DHT22;56847;51.984;5.088;2022-08-21T21:04:36;23.80;57.00
69626;DHT22;56847;51.984;5.088;2022-08-21T21:07:13;23.80;57.30